createdAt,value
2018-11-21T00:02:19.555Z,73.35
2018-11-21T00:04:47.657Z,73.39
2018-11-21T00:07:15.811Z,73.86
2018-11-21T00:09:43.985Z,73.28
2018-11-21T00:12:12.552Z,73.69
2018-11-21T00:14:40.671Z,73.49
2018-11-21T00:17:08.787Z,73.43
2018-11-21T00:19:36.922Z,73.79
2018-11-21T00:22:05.270Z,73.92
2018-11-21T00:24:33.338Z,73.67
2018-11-21T00:27:01.741Z,73.91
2018-11-21T00:29:29.851Z,73.75
2018-11-21T00:31:58.074Z,74.08
2018-11-21T00:34:26.237Z,73.92
2018-11-21T00:36:54.382Z,74.06
2018-11-21T00:39:22.501Z,73.69
2018-11-21T00:41:51.000Z,73.50
2018-11-21T00:44:20.289Z,73.94
2018-11-21T00:46:48.374Z,74.24
2018-11-21T00:49:16.533Z,74.12
2018-11-21T00:51:44.769Z,73.95
2018-11-21T00:54:13.000Z,74.14
2018-11-21T00:56:41.155Z,73.82
2018-11-21T00:59:09.255Z,73.87
2018-11-21T01:01:37.454Z,73.95
2018-11-21T01:04:05.575Z,74.05
2018-11-21T01:06:33.788Z,73.88
2018-11-21T01:09:01.936Z,73.87
2018-11-21T01:11:30.045Z,73.71
2018-11-21T01:13:58.191Z,73.73
2018-11-21T01:16:26.932Z,73.95
2018-11-21T01:18:55.186Z,73.95
2018-11-21T01:21:23.659Z,73.95
2018-11-21T01:23:51.781Z,73.97
2018-11-21T01:26:20.409Z,74.11
2018-11-21T01:28:48.648Z,73.86
2018-11-21T01:31:16.875Z,73.92
2018-11-21T01:33:44.999Z,73.59
2018-11-21T01:36:13.122Z,73.81
2018-11-21T01:38:41.375Z,74.20
2018-11-21T01:41:09.555Z,74.49
2018-11-21T01:43:37.700Z,73.96
2018-11-21T01:46:06.465Z,74.28
2018-11-21T01:48:34.814Z,74.42
2018-11-21T01:51:02.973Z,74.32
2018-11-21T01:53:31.077Z,74.85
2018-11-21T01:55:59.184Z,74.77
2018-11-21T01:58:27.704Z,75.03
2018-11-21T02:00:55.796Z,74.34
2018-11-21T02:03:23.948Z,74.85
2018-11-21T02:05:52.075Z,74.85
2018-11-21T02:08:20.179Z,74.53
2018-11-21T02:10:48.485Z,74.66
2018-11-21T02:13:16.612Z,75.07
2018-11-21T02:15:44.760Z,74.94
2018-11-21T02:18:12.873Z,75.13
2018-11-21T02:20:41.022Z,74.88
2018-11-21T02:23:18.740Z,75.04
2018-11-21T02:25:40.876Z,74.76
2018-11-21T02:28:10.664Z,74.84
2018-11-21T02:30:39.137Z,75.15
2018-11-21T02:33:07.240Z,75.06
2018-11-21T02:35:35.357Z,75.00
2018-11-21T02:38:03.657Z,75.15
2018-11-21T02:40:31.790Z,75.14
2018-11-21T02:42:59.989Z,74.80
2018-11-21T02:45:28.139Z,75.03
2018-11-21T02:47:56.282Z,75.25
2018-11-21T02:50:24.507Z,75.20
2018-11-21T02:52:52.680Z,75.18
2018-11-21T02:55:20.800Z,74.49
2018-11-21T02:57:48.927Z,74.67
2018-11-21T03:00:19.394Z,74.78
2018-11-21T03:02:47.561Z,74.92
2018-11-21T03:05:16.046Z,75.31
2018-11-21T03:08:00.047Z,75.34
2018-11-21T03:10:28.406Z,74.91
2018-11-21T03:12:56.817Z,74.74
2018-11-21T03:15:24.953Z,74.86
2018-11-21T03:17:53.049Z,74.54
2018-11-21T03:20:21.406Z,74.64
2018-11-21T03:22:49.604Z,74.29
2018-11-21T03:25:18.073Z,74.50
2018-11-21T03:27:46.287Z,74.72
2018-11-21T03:30:14.459Z,74.94
2018-11-21T03:32:42.767Z,74.53
2018-11-21T03:35:11.318Z,74.41
2018-11-21T03:37:39.471Z,74.50
2018-11-21T03:40:09.545Z,73.86
2018-11-21T03:42:37.906Z,74.09
2018-11-21T03:45:08.085Z,73.38
2018-11-21T03:47:36.224Z,74.90
2018-11-21T03:50:05.818Z,73.66
2018-11-21T03:52:34.302Z,73.97
2018-11-21T03:55:02.416Z,73.58
2018-11-21T03:57:30.664Z,73.86
2018-11-21T03:59:58.797Z,73.46
2018-11-21T04:02:27.024Z,73.86
2018-11-21T04:04:55.161Z,73.58
2018-11-21T04:07:23.617Z,73.26
2018-11-21T04:09:51.804Z,73.36
2018-11-21T04:12:19.931Z,73.91
2018-11-21T04:14:48.290Z,73.71
2018-11-21T04:17:16.747Z,73.73
2018-11-21T04:19:44.921Z,74.14
2018-11-21T04:22:13.059Z,74.10
2018-11-21T04:24:41.260Z,74.38
2018-11-21T04:27:09.455Z,74.77
2018-11-21T04:29:37.946Z,74.88
2018-11-21T04:32:06.069Z,74.76
2018-11-21T04:34:34.255Z,74.52
2018-11-21T04:37:02.704Z,74.81
2018-11-21T04:39:30.838Z,74.31
2018-11-21T04:41:59.091Z,75.25
2018-11-21T04:44:27.187Z,74.88
2018-11-21T04:46:55.307Z,74.70
2018-11-21T04:49:23.423Z,74.33
2018-11-21T04:51:51.996Z,74.77
2018-11-21T04:54:20.220Z,74.33
2018-11-21T04:56:48.440Z,74.54
2018-11-21T04:59:16.588Z,74.05
2018-11-21T05:01:45.024Z,74.19
2018-11-21T05:04:13.164Z,73.70
2018-11-21T05:06:41.332Z,73.64
2018-11-21T05:09:13.179Z,74.18
2018-11-21T05:11:41.652Z,73.29
2018-11-21T05:14:09.861Z,73.73
2018-11-21T05:16:38.092Z,73.31
2018-11-21T05:19:06.264Z,73.80
2018-11-21T05:21:34.530Z,73.77
2018-11-21T05:24:02.653Z,74.00
2018-11-21T05:26:30.839Z,74.17
2018-11-21T05:28:59.074Z,73.59
2018-11-21T05:31:27.289Z,73.06
2018-11-21T05:33:55.410Z,73.49
2018-11-21T05:36:23.567Z,73.21
2018-11-21T05:38:51.696Z,73.31
2018-11-21T05:41:20.489Z,73.10
2018-11-21T05:43:48.978Z,73.27
2018-11-21T05:46:17.384Z,72.96
2018-11-21T05:48:45.849Z,73.63
2018-11-21T05:51:13.958Z,73.06
2018-11-21T05:53:42.128Z,72.96
2018-11-21T05:56:10.562Z,73.00
2018-11-21T05:58:39.014Z,73.38
2018-11-21T06:01:07.459Z,73.22
2018-11-21T06:03:35.569Z,73.74
2018-11-21T06:06:09.748Z,73.65
2018-11-21T06:08:31.873Z,73.48
2018-11-21T06:11:00.057Z,73.57
2018-11-21T06:13:28.115Z,73.32
2018-11-21T06:15:56.266Z,74.02
2018-11-21T06:18:24.394Z,74.08
2018-11-21T06:20:52.611Z,73.74
2018-11-21T06:23:21.442Z,73.71
2018-11-21T06:25:49.592Z,74.11
2018-11-21T06:28:17.757Z,73.77
2018-11-21T06:30:46.364Z,74.08
2018-11-21T06:33:14.597Z,73.92
2018-11-21T06:35:42.831Z,74.41
2018-11-21T06:38:10.935Z,74.29
2018-11-21T06:40:39.341Z,74.54
2018-11-21T06:43:07.558Z,73.70
2018-11-21T06:45:35.764Z,74.40
2018-11-21T06:48:03.962Z,74.39
2018-11-21T06:50:32.111Z,74.96
2018-11-21T06:53:01.031Z,75.09
2018-11-21T06:55:29.265Z,75.07
2018-11-21T06:58:02.351Z,75.10
2018-11-21T07:00:29.501Z,74.75
2018-11-21T07:02:57.803Z,74.56
2018-11-21T07:05:25.997Z,74.61
2018-11-21T07:07:54.104Z,74.28
2018-11-21T07:10:22.505Z,75.54
2018-11-21T07:12:50.945Z,75.13
2018-11-21T07:15:20.915Z,75.29
2018-11-21T07:17:49.295Z,75.63
2018-11-21T07:20:17.888Z,76.22
2018-11-21T07:22:46.024Z,75.66
2018-11-21T07:25:21.598Z,75.46
2018-11-21T07:27:49.922Z,76.03
2018-11-21T07:30:18.482Z,75.59
2018-11-21T07:32:46.772Z,75.47
2018-11-21T07:35:18.019Z,76.05
2018-11-21T07:38:30.859Z,75.92
2018-11-21T07:41:05.066Z,75.93
2018-11-21T07:43:33.586Z,75.75
2018-11-21T07:46:01.690Z,75.50
2018-11-21T07:48:44.638Z,75.93
2018-11-21T07:51:06.169Z,75.91
2018-11-21T07:53:45.512Z,75.91
2018-11-21T07:57:02.522Z,75.62
2018-11-21T07:59:31.310Z,75.60
2018-11-21T08:02:17.577Z,76.34
2018-11-21T08:04:50.039Z,76.19
2018-11-21T08:07:43.222Z,75.56
2018-11-21T08:10:28.958Z,75.64
2018-11-21T08:13:16.519Z,75.53
2018-11-21T08:19:11.429Z,75.69
2018-11-21T08:21:57.246Z,75.63
2018-11-21T08:24:43.392Z,75.65
2018-11-21T08:27:39.878Z,75.43
2018-11-21T08:30:08.015Z,77.60
2018-11-21T08:32:36.248Z,75.06
2018-11-21T08:35:04.716Z,76.00
2018-11-21T08:37:32.857Z,73.72
2018-11-21T08:40:01.242Z,73.82
2018-11-21T08:42:29.366Z,77.23
2018-11-21T08:44:57.915Z,77.08
2018-11-21T08:47:26.064Z,75.71
2018-11-21T08:49:54.150Z,75.11
2018-11-21T08:52:22.397Z,75.40
2018-11-21T08:54:50.942Z,75.47
2018-11-21T08:57:19.353Z,74.76
2018-11-21T08:59:47.479Z,74.37
2018-11-21T09:02:15.668Z,74.10
2018-11-21T09:04:43.835Z,72.34
2018-11-21T09:07:11.973Z,74.23
2018-11-21T09:09:40.104Z,74.02
2018-11-21T09:12:08.885Z,76.00
2018-11-21T09:14:36.670Z,75.12
2018-11-21T09:17:04.861Z,75.38
2018-11-21T09:19:32.987Z,78.68
2018-11-21T09:22:01.262Z,73.76
2018-11-21T09:24:29.746Z,73.27
2018-11-21T09:26:57.800Z,73.79
2018-11-21T09:29:26.375Z,73.63
2018-11-21T09:31:54.502Z,73.55
2018-11-21T09:34:22.785Z,74.29
2018-11-21T09:36:51.018Z,72.44
2018-11-21T09:39:19.158Z,74.05
2018-11-21T09:41:47.295Z,74.58
2018-11-21T09:44:15.497Z,72.21
2018-11-21T09:46:43.699Z,75.61
2018-11-21T09:49:11.805Z,73.10
2018-11-21T09:51:39.995Z,75.41
2018-11-21T09:54:08.121Z,73.02
2018-11-21T09:56:36.248Z,70.07
2018-11-21T09:59:04.791Z,74.67
2018-11-21T10:02:09.144Z,71.40
2018-11-21T10:04:37.238Z,74.07
2018-11-21T10:07:05.695Z,71.69
2018-11-21T10:09:39.462Z,72.55
2018-11-21T10:12:07.929Z,72.46
2018-11-21T10:14:36.061Z,74.26
2018-11-21T10:17:04.191Z,71.24
2018-11-21T10:19:32.375Z,72.60
2018-11-21T10:22:01.113Z,71.76
2018-11-21T10:24:29.373Z,73.26
2018-11-21T10:26:57.473Z,73.77
2018-11-21T10:29:26.041Z,73.02
2018-11-21T10:31:54.500Z,72.63
2018-11-21T10:34:22.593Z,74.24
2018-11-21T10:36:50.724Z,71.46
2018-11-21T10:39:18.925Z,72.40
2018-11-21T10:41:47.388Z,71.39
2018-11-21T10:44:16.114Z,72.74
2018-11-21T10:46:44.213Z,70.94
2018-11-21T10:49:12.711Z,73.60
2018-11-21T10:51:41.030Z,71.47
2018-11-21T10:54:09.256Z,70.42
2018-11-21T10:56:37.385Z,69.89
2018-11-21T10:59:05.676Z,72.27
2018-11-21T11:01:58.882Z,69.78
2018-11-21T11:04:49.626Z,70.61
2018-11-21T11:07:39.512Z,69.26
2018-11-21T11:10:22.407Z,70.28
2018-11-21T11:13:09.601Z,71.01
2018-11-21T11:16:05.755Z,70.46
2018-11-21T11:18:56.316Z,71.87
2018-11-21T11:21:49.979Z,72.34
2018-11-21T11:24:49.362Z,69.12
2018-11-21T11:27:39.562Z,70.73
2018-11-21T11:30:33.436Z,71.76
2018-11-21T11:33:20.844Z,71.74
2018-11-21T11:36:06.423Z,71.81
2018-11-21T11:38:54.330Z,71.16
2018-11-21T11:41:40.176Z,73.28
2018-11-21T11:44:26.257Z,69.30
2018-11-21T11:47:19.496Z,70.83
2018-11-21T11:50:00.850Z,69.86
2018-11-21T11:52:56.030Z,69.59
2018-11-21T11:55:41.724Z,71.95
2018-11-21T11:58:24.497Z,71.46
2018-11-21T12:01:03.441Z,70.03
2018-11-21T12:03:49.595Z,70.82
2018-11-21T12:06:42.628Z,72.57
2018-11-21T12:09:46.925Z,71.86
2018-11-21T12:12:47.756Z,68.52
2018-11-21T12:15:29.860Z,67.99
2018-11-21T12:18:35.295Z,70.79
2018-11-21T12:21:22.364Z,70.05
2018-11-21T12:24:03.473Z,69.92
2018-11-21T12:26:54.016Z,70.86
2018-11-21T12:29:56.583Z,72.19
2018-11-21T12:32:55.864Z,71.21
2018-11-21T12:35:46.317Z,71.25
2018-11-21T12:38:42.883Z,70.97
2018-11-21T12:41:28.601Z,70.92
2018-11-21T12:44:14.967Z,70.22
2018-11-21T12:47:02.246Z,70.74
2018-11-21T12:49:48.159Z,70.10
2018-11-21T12:52:38.336Z,70.42
2018-11-21T12:55:20.875Z,70.18
2018-11-21T12:58:11.347Z,70.18
2018-11-21T13:01:01.761Z,70.53
2018-11-21T13:03:39.836Z,70.10
2018-11-21T13:06:27.119Z,72.07
2018-11-21T13:09:32.611Z,71.66
2018-11-21T13:12:12.152Z,72.02
2018-11-21T13:14:53.940Z,71.89
2018-11-21T13:18:07.111Z,71.69
2018-11-21T13:20:57.343Z,71.59
2018-11-21T13:23:43.698Z,72.12
2018-11-21T13:26:29.693Z,72.11
2018-11-21T13:29:17.290Z,71.90
2018-11-21T13:32:11.919Z,72.73
2018-11-21T13:35:40.713Z,73.30
2018-11-21T13:38:26.824Z,72.97
2018-11-21T13:41:20.111Z,72.15
2018-11-21T13:43:56.871Z,72.54
2018-11-21T13:46:33.669Z,72.44
2018-11-21T13:49:20.988Z,73.44
2018-11-21T13:52:10.213Z,72.65
2018-11-21T13:54:55.510Z,72.60
2018-11-21T13:57:23.628Z,73.51
2018-11-21T14:00:03.587Z,72.79
2018-11-21T14:02:36.821Z,73.10
2018-11-21T14:05:03.736Z,72.86
2018-11-21T14:07:35.377Z,73.12
2018-11-21T14:10:06.919Z,73.82
2018-11-21T14:12:37.470Z,73.31
2018-11-21T14:15:09.330Z,73.66
2018-11-21T14:17:40.893Z,73.49
2018-11-21T14:20:10.811Z,73.55
2018-11-21T14:22:39.475Z,73.41
2018-11-21T14:25:09.375Z,73.51
2018-11-21T14:27:40.057Z,73.37
2018-11-21T14:30:16.138Z,73.74
2018-11-21T14:32:44.298Z,73.49
2018-11-21T14:35:13.905Z,73.93
2018-11-21T14:37:42.561Z,74.12
2018-11-21T14:40:13.088Z,73.98
2018-11-21T14:42:41.275Z,73.90
2018-11-21T14:45:11.838Z,73.84
2018-11-21T14:47:39.975Z,73.73
2018-11-21T14:50:28.653Z,74.71
2018-11-21T14:52:56.920Z,73.91
2018-11-21T14:55:25.374Z,74.42
2018-11-21T14:57:53.956Z,74.49
2018-11-21T15:00:22.748Z,74.41
2018-11-21T15:02:51.229Z,74.63
2018-11-21T15:05:19.852Z,74.13
2018-11-21T15:07:48.510Z,74.00
2018-11-21T15:10:16.623Z,74.14
2018-11-21T15:12:44.741Z,74.45
2018-11-21T15:15:18.486Z,75.07
2018-11-21T15:19:03.622Z,74.42
2018-11-21T15:21:17.493Z,74.41
2018-11-21T15:23:45.678Z,74.13
2018-11-21T15:26:14.028Z,74.97
2018-11-21T15:28:42.262Z,74.91
2018-11-21T15:31:10.373Z,74.58
2018-11-21T15:33:38.493Z,74.76
2018-11-21T15:36:06.876Z,75.15
2018-11-21T15:38:35.327Z,74.79
2018-11-21T15:41:03.458Z,74.85
2018-11-21T15:43:31.679Z,74.64
2018-11-21T15:45:59.834Z,75.40
2018-11-21T15:48:28.263Z,75.24
2018-11-21T15:50:57.084Z,75.25
2018-11-21T15:53:25.331Z,75.08
2018-11-21T15:55:53.476Z,75.29
2018-11-21T15:58:21.645Z,75.60
2018-11-21T16:00:52.811Z,75.52
2018-11-21T16:03:20.933Z,75.23
2018-11-21T16:05:49.133Z,75.12
2018-11-21T16:08:26.050Z,74.94
2018-11-21T16:10:54.043Z,75.50
2018-11-21T16:13:22.191Z,75.06
2018-11-21T16:15:52.291Z,75.42
2018-11-21T16:18:22.111Z,76.02
2018-11-21T16:20:50.425Z,75.76
2018-11-21T16:23:18.533Z,75.25
2018-11-21T16:25:46.832Z,75.35
2018-11-21T16:28:14.970Z,75.49
2018-11-21T16:31:01.060Z,75.39
2018-11-21T16:33:29.752Z,75.51
2018-11-21T16:35:57.997Z,75.42
2018-11-21T16:38:26.141Z,76.32
2018-11-21T16:40:54.438Z,76.34
2018-11-21T16:43:23.194Z,75.69
2018-11-21T16:45:53.340Z,75.69
2018-11-21T16:48:21.799Z,75.82
2018-11-21T16:50:49.971Z,75.82
2018-11-21T16:53:18.174Z,76.03
2018-11-21T16:55:46.366Z,76.25
2018-11-21T16:58:14.524Z,75.73
2018-11-21T17:00:42.963Z,75.58
2018-11-21T17:03:13.098Z,76.30
2018-11-21T17:05:41.434Z,76.46
2018-11-21T17:08:37.702Z,76.33
2018-11-21T17:10:52.234Z,76.65
2018-11-21T17:13:23.902Z,76.55
2018-11-21T17:15:52.420Z,76.47
2018-11-21T17:18:20.909Z,76.19
2018-11-21T17:20:50.057Z,76.75
2018-11-21T17:23:18.604Z,76.33
2018-11-21T17:25:46.755Z,76.83
2018-11-21T17:28:14.997Z,76.47
2018-11-21T17:30:44.033Z,77.29
2018-11-21T17:33:12.264Z,77.26
2018-11-21T17:35:40.597Z,76.84
2018-11-21T17:38:08.932Z,76.95
2018-11-21T17:40:42.885Z,77.36
2018-11-21T17:43:11.060Z,77.15
2018-11-21T17:45:39.169Z,77.56
2018-11-21T17:48:07.834Z,77.45
2018-11-21T17:50:36.281Z,77.47
2018-11-21T17:53:05.640Z,76.82
2018-11-21T17:55:34.826Z,77.32
2018-11-21T17:58:03.508Z,77.38
2018-11-21T18:00:32.227Z,78.08
2018-11-21T18:03:00.344Z,77.62
2018-11-21T18:05:33.336Z,77.29
2018-11-21T18:11:44.940Z,77.60
2018-11-21T18:14:13.377Z,77.71
2018-11-21T18:16:41.793Z,78.23
2018-11-21T18:19:09.988Z,78.11
2018-11-21T18:21:38.239Z,78.23
2018-11-21T18:24:06.407Z,78.22
2018-11-21T18:26:34.695Z,78.75
2018-11-21T18:29:03.071Z,78.42
2018-11-21T18:31:31.245Z,78.21
2018-11-21T18:33:59.364Z,78.14
2018-11-21T18:36:27.496Z,78.35
2018-11-21T18:38:56.021Z,78.15
2018-11-21T18:41:24.545Z,78.53
2018-11-21T18:43:56.326Z,78.22
2018-11-21T18:46:33.642Z,78.33
2018-11-21T18:49:03.075Z,78.18
2018-11-21T18:52:01.568Z,78.85
2018-11-21T18:55:27.729Z,78.81
2018-11-21T18:59:05.096Z,78.68
2018-11-21T19:01:34.288Z,78.64
2018-11-21T19:04:51.886Z,79.28
2018-11-21T19:07:26.236Z,78.98
2018-11-21T19:09:54.462Z,79.40
2018-11-21T19:12:22.616Z,79.24
2018-11-21T19:14:50.774Z,79.07
2018-11-21T19:17:18.907Z,79.19
2018-11-21T19:19:47.293Z,78.40
2018-11-21T19:22:15.734Z,79.14
2018-11-21T19:24:43.926Z,78.74
2018-11-21T19:27:12.503Z,78.55
2018-11-21T19:29:40.764Z,78.75
2018-11-21T19:32:10.113Z,78.92
2018-11-21T19:34:47.735Z,78.98
2018-11-21T19:37:16.347Z,78.55
2018-11-21T19:39:44.745Z,78.49
2018-11-21T19:42:12.893Z,78.71
2018-11-21T19:44:40.994Z,78.76
2018-11-21T19:47:09.150Z,78.71
2018-11-21T19:49:47.430Z,78.77
2018-11-21T19:52:15.699Z,78.72
2018-11-21T19:54:43.839Z,78.78
2018-11-21T19:57:12.237Z,78.40
2018-11-21T19:59:43.563Z,78.74
2018-11-21T20:02:08.537Z,79.13
2018-11-21T20:04:40.883Z,79.03
2018-11-21T20:07:24.249Z,78.54
2018-11-21T20:09:56.294Z,78.46
2018-11-21T20:12:24.463Z,78.81
2018-11-21T20:14:52.999Z,78.73
2018-11-21T20:17:21.605Z,78.64
2018-11-21T20:19:50.371Z,78.70
2018-11-21T20:22:18.497Z,78.83
2018-11-21T20:24:46.764Z,78.98
2018-11-21T20:27:15.508Z,78.82
2018-11-21T20:29:46.701Z,79.17
2018-11-21T20:32:13.437Z,79.46
2018-11-21T20:34:41.549Z,79.16
2018-11-21T20:37:09.750Z,79.61
2018-11-21T20:39:38.113Z,79.47
2018-11-21T20:42:06.470Z,79.30
2018-11-21T20:44:34.960Z,79.37
2018-11-21T20:47:03.637Z,79.33
2018-11-21T20:49:32.621Z,79.27
2018-11-21T20:52:01.022Z,79.46
2018-11-21T20:54:29.452Z,79.19
2018-11-21T20:56:57.827Z,79.80
2018-11-21T20:59:26.202Z,79.49
2018-11-21T21:01:54.647Z,80.13
2018-11-21T21:04:23.081Z,79.70
2018-11-21T21:06:53.942Z,79.58
2018-11-21T21:09:22.432Z,79.99
2018-11-21T21:11:51.154Z,79.85
2018-11-21T21:14:19.553Z,79.78
2018-11-21T21:16:48.047Z,79.91
2018-11-21T21:19:16.884Z,80.10
2018-11-21T21:21:44.798Z,80.02
2018-11-21T21:24:13.373Z,80.00
2018-11-21T21:26:41.502Z,80.20
2018-11-21T21:29:11.061Z,80.17
2018-11-21T21:31:39.476Z,80.13
2018-11-21T21:37:37.516Z,80.11
2018-11-21T21:40:11.245Z,79.98
2018-11-21T21:42:42.083Z,79.96
2018-11-21T21:45:10.121Z,80.44
2018-11-21T21:47:41.690Z,80.67
2018-11-21T21:50:08.289Z,80.21
2018-11-21T21:52:36.607Z,80.70
2018-11-21T21:55:05.370Z,80.23
2018-11-21T21:57:33.898Z,80.52
2018-11-21T22:00:03.125Z,80.10
2018-11-21T22:02:37.547Z,80.81
2018-11-21T22:05:09.817Z,81.26
2018-11-21T22:07:50.998Z,81.29
2018-11-21T22:10:26.625Z,80.95
2018-11-21T22:15:59.587Z,80.70
2018-11-21T22:18:30.743Z,81.32
2018-11-21T22:21:11.620Z,80.74
2018-11-21T22:23:53.953Z,80.34
2018-11-21T22:26:25.845Z,80.69
2018-11-21T22:29:00.108Z,80.20
2018-11-21T22:31:28.220Z,80.26
2018-11-21T22:33:56.805Z,79.87
2018-11-21T22:36:24.951Z,80.22
2018-11-21T22:38:53.203Z,79.90
2018-11-21T22:41:21.387Z,80.13
2018-11-21T22:43:49.659Z,80.54
2018-11-21T22:46:17.870Z,79.89
2018-11-21T22:48:46.019Z,80.57
2018-11-21T22:51:14.245Z,80.75
2018-11-21T22:53:42.465Z,80.31
2018-11-21T22:56:10.645Z,80.25
2018-11-21T22:58:38.762Z,80.18
